sensor_id;sensor_type;location;lat;lon;timestamp;P1;durP1;ratioP1;P2;durP2;ratioP2
5303;SDS011;2674;49.722;10.892;2024-02-14T00:01:54;10.70;;;6.10;;
5303;SDS011;2674;49.722;10.892;2024-02-14T00:04:20;8.50;;;6.20;;
5303;SDS011;2674;49.722;10.892;2024-02-14T00:06:46;8.73;;;6.03;;
5303;SDS011;2674;49.722;10.892;2024-02-14T00:09:12;16.30;;;7.00;;
5303;SDS011;2674;49.722;10.892;2024-02-14T00:11:38;9.00;;;6.77;;
5303;SDS011;2674;49.722;10.892;2024-02-14T00:14:04;11.40;;;7.13;;
5303;SDS011;2674;49.722;10.892;2024-02-14T00:16:29;10.13;;;6.90;;
5303;SDS011;2674;49.722;10.892;2024-02-14T00:18:56;13.10;;;7.10;;
5303;SDS011;2674;49.722;10.892;2024-02-14T00:21:22;11.03;;;6.20;;
5303;SDS011;2674;49.722;10.892;2024-02-14T00:23:49;11.70;;;7.00;;
5303;SDS011;2674;49.722;10.892;2024-02-14T00:26:15;9.87;;;6.90;;
5303;SDS011;2674;49.722;10.892;2024-02-14T00:28:41;10.93;;;7.33;;
5303;SDS011;2674;49.722;10.892;2024-02-14T00:31:07;9.53;;;7.10;;
5303;SDS011;2674;49.722;10.892;2024-02-14T00:33:33;11.23;;;6.60;;
5303;SDS011;2674;49.722;10.892;2024-02-14T00:35:58;11.00;;;7.70;;
5303;SDS011;2674;49.722;10.892;2024-02-14T00:38:24;10.37;;;7.83;;
5303;SDS011;2674;49.722;10.892;2024-02-14T00:40:50;16.43;;;7.57;;
5303;SDS011;2674;49.722;10.892;2024-02-14T00:43:16;11.17;;;7.50;;
5303;SDS011;2674;49.722;10.892;2024-02-14T00:45:42;13.43;;;8.57;;
5303;SDS011;2674;49.722;10.892;2024-02-14T00:48:07;11.90;;;7.03;;
5303;SDS011;2674;49.722;10.892;2024-02-14T00:50:33;13.07;;;7.90;;
5303;SDS011;2674;49.722;10.892;2024-02-14T00:52:59;16.10;;;8.00;;
5303;SDS011;2674;49.722;10.892;2024-02-14T00:55:25;15.20;;;7.40;;
5303;SDS011;2674;49.722;10.892;2024-02-14T00:57:51;14.80;;;7.40;;
5303;SDS011;2674;49.722;10.892;2024-02-14T01:00:17;11.20;;;7.80;;
5303;SDS011;2674;49.722;10.892;2024-02-14T01:02:43;14.87;;;8.03;;
5303;SDS011;2674;49.722;10.892;2024-02-14T01:05:09;12.70;;;7.80;;
5303;SDS011;2674;49.722;10.892;2024-02-14T01:07:35;14.40;;;8.07;;
5303;SDS011;2674;49.722;10.892;2024-02-14T01:10:01;12.70;;;7.77;;
5303;SDS011;2674;49.722;10.892;2024-02-14T01:12:28;10.40;;;6.77;;
5303;SDS011;2674;49.722;10.892;2024-02-14T01:14:57;11.17;;;7.10;;
5303;SDS011;2674;49.722;10.892;2024-02-14T01:17:23;14.50;;;7.87;;
5303;SDS011;2674;49.722;10.892;2024-02-14T01:19:50;9.90;;;7.47;;
5303;SDS011;2674;49.722;10.892;2024-02-14T01:22:16;10.03;;;6.43;;
5303;SDS011;2674;49.722;10.892;2024-02-14T01:24:44;16.60;;;7.40;;
5303;SDS011;2674;49.722;10.892;2024-02-14T01:27:10;10.03;;;7.33;;
5303;SDS011;2674;49.722;10.892;2024-02-14T01:29:36;11.93;;;7.57;;
5303;SDS011;2674;49.722;10.892;2024-02-14T01:32:02;13.20;;;7.50;;
5303;SDS011;2674;49.722;10.892;2024-02-14T01:34:29;11.17;;;6.70;;
5303;SDS011;2674;49.722;10.892;2024-02-14T01:36:55;9.33;;;6.30;;
5303;SDS011;2674;49.722;10.892;2024-02-14T01:39:21;9.63;;;6.57;;
5303;SDS011;2674;49.722;10.892;2024-02-14T01:41:47;13.43;;;6.70;;
5303;SDS011;2674;49.722;10.892;2024-02-14T01:44:16;11.57;;;6.90;;
5303;SDS011;2674;49.722;10.892;2024-02-14T01:46:43;8.70;;;7.07;;
5303;SDS011;2674;49.722;10.892;2024-02-14T01:49:10;9.17;;;6.50;;
5303;SDS011;2674;49.722;10.892;2024-02-14T01:51:37;10.90;;;7.30;;
5303;SDS011;2674;49.722;10.892;2024-02-14T01:54:05;11.30;;;8.20;;
5303;SDS011;2674;49.722;10.892;2024-02-14T01:56:32;13.73;;;6.63;;
5303;SDS011;2674;49.722;10.892;2024-02-14T01:58:58;12.30;;;6.43;;
5303;SDS011;2674;49.722;10.892;2024-02-14T02:01:25;9.10;;;7.37;;
5303;SDS011;2674;49.722;10.892;2024-02-14T02:03:52;8.27;;;6.00;;
5303;SDS011;2674;49.722;10.892;2024-02-14T02:06:18;18.63;;;6.93;;
5303;SDS011;2674;49.722;10.892;2024-02-14T02:08:44;8.00;;;6.60;;
5303;SDS011;2674;49.722;10.892;2024-02-14T02:11:10;14.83;;;6.63;;
5303;SDS011;2674;49.722;10.892;2024-02-14T02:13:36;10.10;;;6.77;;
5303;SDS011;2674;49.722;10.892;2024-02-14T02:16:04;11.83;;;7.20;;
5303;SDS011;2674;49.722;10.892;2024-02-14T02:18:31;13.83;;;7.40;;
5303;SDS011;2674;49.722;10.892;2024-02-14T02:20:57;13.70;;;6.80;;
5303;SDS011;2674;49.722;10.892;2024-02-14T02:23:23;11.40;;;6.30;;
5303;SDS011;2674;49.722;10.892;2024-02-14T02:25:49;7.07;;;6.13;;
5303;SDS011;2674;49.722;10.892;2024-02-14T02:28:15;9.87;;;6.00;;
5303;SDS011;2674;49.722;10.892;2024-02-14T02:30:41;10.50;;;5.37;;
5303;SDS011;2674;49.722;10.892;2024-02-14T02:33:07;11.83;;;6.00;;
5303;SDS011;2674;49.722;10.892;2024-02-14T02:35:33;11.13;;;6.50;;
5303;SDS011;2674;49.722;10.892;2024-02-14T02:38:02;9.20;;;6.93;;
5303;SDS011;2674;49.722;10.892;2024-02-14T02:40:28;7.07;;;5.27;;
5303;SDS011;2674;49.722;10.892;2024-02-14T02:42:54;8.80;;;6.37;;
5303;SDS011;2674;49.722;10.892;2024-02-14T02:45:20;19.70;;;6.80;;
5303;SDS011;2674;49.722;10.892;2024-02-14T02:47:46;13.17;;;6.47;;
5303;SDS011;2674;49.722;10.892;2024-02-14T02:50:13;17.37;;;5.93;;
5303;SDS011;2674;49.722;10.892;2024-02-14T02:52:39;10.13;;;6.57;;
5303;SDS011;2674;49.722;10.892;2024-02-14T02:55:06;10.40;;;7.10;;
5303;SDS011;2674;49.722;10.892;2024-02-14T02:57:32;10.30;;;6.63;;
5303;SDS011;2674;49.722;10.892;2024-02-14T02:59:59;9.00;;;6.50;;
5303;SDS011;2674;49.722;10.892;2024-02-14T03:02:25;7.93;;;6.30;;
5303;SDS011;2674;49.722;10.892;2024-02-14T03:04:51;10.00;;;6.03;;
5303;SDS011;2674;49.722;10.892;2024-02-14T03:07:18;14.13;;;6.17;;
5303;SDS011;2674;49.722;10.892;2024-02-14T03:09:44;10.43;;;6.60;;
5303;SDS011;2674;49.722;10.892;2024-02-14T03:12:10;6.53;;;5.70;;
5303;SDS011;2674;49.722;10.892;2024-02-14T03:14:36;14.53;;;5.70;;
5303;SDS011;2674;49.722;10.892;2024-02-14T03:17:02;13.20;;;7.90;;
5303;SDS011;2674;49.722;10.892;2024-02-14T03:19:28;6.60;;;5.10;;
5303;SDS011;2674;49.722;10.892;2024-02-14T03:21:55;10.80;;;6.17;;
5303;SDS011;2674;49.722;10.892;2024-02-14T03:24:22;8.93;;;5.70;;
5303;SDS011;2674;49.722;10.892;2024-02-14T03:26:50;11.40;;;6.00;;
5303;SDS011;2674;49.722;10.892;2024-02-14T03:29:20;12.20;;;5.60;;
5303;SDS011;2674;49.722;10.892;2024-02-14T03:31:46;9.87;;;5.40;;
5303;SDS011;2674;49.722;10.892;2024-02-14T03:34:12;11.73;;;5.80;;
5303;SDS011;2674;49.722;10.892;2024-02-14T03:36:38;9.43;;;6.43;;
5303;SDS011;2674;49.722;10.892;2024-02-14T03:39:04;10.93;;;6.07;;
5303;SDS011;2674;49.722;10.892;2024-02-14T03:41:31;10.07;;;6.43;;
5303;SDS011;2674;49.722;10.892;2024-02-14T03:43:57;8.20;;;6.03;;
5303;SDS011;2674;49.722;10.892;2024-02-14T03:46:26;6.93;;;5.37;;
5303;SDS011;2674;49.722;10.892;2024-02-14T03:48:53;10.67;;;6.23;;
5303;SDS011;2674;49.722;10.892;2024-02-14T03:51:19;10.43;;;6.47;;
5303;SDS011;2674;49.722;10.892;2024-02-14T03:53:46;14.63;;;6.17;;
5303;SDS011;2674;49.722;10.892;2024-02-14T03:56:11;9.70;;;5.80;;
5303;SDS011;2674;49.722;10.892;2024-02-14T03:58:39;10.00;;;5.70;;
5303;SDS011;2674;49.722;10.892;2024-02-14T04:01:05;11.53;;;5.40;;
5303;SDS011;2674;49.722;10.892;2024-02-14T04:03:31;8.07;;;6.00;;
5303;SDS011;2674;49.722;10.892;2024-02-14T04:05:57;6.80;;;5.47;;
5303;SDS011;2674;49.722;10.892;2024-02-14T04:08:23;6.80;;;5.50;;
5303;SDS011;2674;49.722;10.892;2024-02-14T04:10:49;7.63;;;5.33;;
5303;SDS011;2674;49.722;10.892;2024-02-14T04:13:15;11.63;;;5.53;;
5303;SDS011;2674;49.722;10.892;2024-02-14T04:15:41;7.20;;;4.67;;
5303;SDS011;2674;49.722;10.892;2024-02-14T04:18:11;6.33;;;4.43;;
5303;SDS011;2674;49.722;10.892;2024-02-14T04:20:38;10.40;;;5.60;;
5303;SDS011;2674;49.722;10.892;2024-02-14T04:23:04;10.50;;;5.77;;
5303;SDS011;2674;49.722;10.892;2024-02-14T04:25:32;7.50;;;5.30;;
5303;SDS011;2674;49.722;10.892;2024-02-14T04:27:58;12.00;;;5.80;;
5303;SDS011;2674;49.722;10.892;2024-02-14T04:30:24;5.93;;;5.33;;
5303;SDS011;2674;49.722;10.892;2024-02-14T04:32:51;7.40;;;6.20;;
5303;SDS011;2674;49.722;10.892;2024-02-14T04:35:17;10.27;;;5.27;;
5303;SDS011;2674;49.722;10.892;2024-02-14T04:37:46;9.53;;;5.20;;
5303;SDS011;2674;49.722;10.892;2024-02-14T04:40:13;6.80;;;5.37;;
5303;SDS011;2674;49.722;10.892;2024-02-14T04:42:39;8.87;;;5.77;;
5303;SDS011;2674;49.722;10.892;2024-02-14T04:45:06;10.60;;;5.57;;
5303;SDS011;2674;49.722;10.892;2024-02-14T04:47:32;11.67;;;6.03;;
5303;SDS011;2674;49.722;10.892;2024-02-14T04:49:58;7.20;;;5.10;;
5303;SDS011;2674;49.722;10.892;2024-02-14T04:52:25;11.40;;;4.83;;
5303;SDS011;2674;49.722;10.892;2024-02-14T04:54:50;15.13;;;5.77;;
5303;SDS011;2674;49.722;10.892;2024-02-14T04:57:16;11.20;;;4.40;;
5303;SDS011;2674;49.722;10.892;2024-02-14T04:59:44;9.67;;;5.03;;
5303;SDS011;2674;49.722;10.892;2024-02-14T05:02:09;5.67;;;4.67;;
5303;SDS011;2674;49.722;10.892;2024-02-14T05:04:36;5.83;;;4.80;;
5303;SDS011;2674;49.722;10.892;2024-02-14T05:07:03;6.87;;;5.10;;
5303;SDS011;2674;49.722;10.892;2024-02-14T05:09:29;9.57;;;5.80;;
5303;SDS011;2674;49.722;10.892;2024-02-14T05:11:55;9.10;;;5.07;;
5303;SDS011;2674;49.722;10.892;2024-02-14T05:14:21;8.30;;;5.40;;
5303;SDS011;2674;49.722;10.892;2024-02-14T05:16:46;7.17;;;4.90;;
5303;SDS011;2674;49.722;10.892;2024-02-14T05:19:12;10.60;;;5.33;;
5303;SDS011;2674;49.722;10.892;2024-02-14T05:21:38;10.93;;;4.97;;
5303;SDS011;2674;49.722;10.892;2024-02-14T05:24:04;7.07;;;4.90;;
5303;SDS011;2674;49.722;10.892;2024-02-14T05:26:31;9.07;;;5.53;;
5303;SDS011;2674;49.722;10.892;2024-02-14T05:28:57;9.67;;;4.93;;
5303;SDS011;2674;49.722;10.892;2024-02-14T05:31:24;9.50;;;5.10;;
5303;SDS011;2674;49.722;10.892;2024-02-14T05:33:54;7.53;;;4.70;;
5303;SDS011;2674;49.722;10.892;2024-02-14T05:36:20;10.40;;;5.53;;
5303;SDS011;2674;49.722;10.892;2024-02-14T05:38:45;9.07;;;5.00;;
5303;SDS011;2674;49.722;10.892;2024-02-14T05:41:11;10.40;;;4.97;;
5303;SDS011;2674;49.722;10.892;2024-02-14T05:43:37;5.30;;;4.60;;
5303;SDS011;2674;49.722;10.892;2024-02-14T05:46:03;5.37;;;4.23;;
5303;SDS011;2674;49.722;10.892;2024-02-14T05:48:29;7.00;;;4.80;;
5303;SDS011;2674;49.722;10.892;2024-02-14T05:50:55;8.37;;;4.77;;
5303;SDS011;2674;49.722;10.892;2024-02-14T05:53:21;12.10;;;5.00;;
5303;SDS011;2674;49.722;10.892;2024-02-14T05:55:46;6.30;;;5.10;;
5303;SDS011;2674;49.722;10.892;2024-02-14T05:58:12;4.63;;;3.90;;
5303;SDS011;2674;49.722;10.892;2024-02-14T06:00:38;6.57;;;5.27;;
5303;SDS011;2674;49.722;10.892;2024-02-14T06:03:04;12.67;;;5.23;;
5303;SDS011;2674;49.722;10.892;2024-02-14T06:05:31;7.53;;;5.67;;
5303;SDS011;2674;49.722;10.892;2024-02-14T06:07:57;10.90;;;6.40;;
5303;SDS011;2674;49.722;10.892;2024-02-14T06:10:23;13.43;;;6.37;;
5303;SDS011;2674;49.722;10.892;2024-02-14T06:12:50;8.50;;;6.60;;
5303;SDS011;2674;49.722;10.892;2024-02-14T06:15:16;11.23;;;6.73;;
5303;SDS011;2674;49.722;10.892;2024-02-14T06:17:42;9.03;;;6.27;;
5303;SDS011;2674;49.722;10.892;2024-02-14T06:20:08;26.30;;;9.90;;
5303;SDS011;2674;49.722;10.892;2024-02-14T06:22:34;33.70;;;16.13;;
5303;SDS011;2674;49.722;10.892;2024-02-14T06:25:00;46.13;;;19.70;;
5303;SDS011;2674;49.722;10.892;2024-02-14T06:27:26;19.43;;;8.47;;
5303;SDS011;2674;49.722;10.892;2024-02-14T06:29:52;11.13;;;5.30;;
5303;SDS011;2674;49.722;10.892;2024-02-14T06:32:18;13.40;;;5.40;;
5303;SDS011;2674;49.722;10.892;2024-02-14T06:34:44;5.43;;;4.90;;
5303;SDS011;2674;49.722;10.892;2024-02-14T06:37:11;5.10;;;4.43;;
5303;SDS011;2674;49.722;10.892;2024-02-14T06:39:37;7.40;;;5.70;;
5303;SDS011;2674;49.722;10.892;2024-02-14T06:42:06;7.30;;;5.07;;
5303;SDS011;2674;49.722;10.892;2024-02-14T06:44:33;9.00;;;4.60;;
5303;SDS011;2674;49.722;10.892;2024-02-14T06:46:59;5.60;;;5.10;;
5303;SDS011;2674;49.722;10.892;2024-02-14T06:49:24;7.40;;;4.70;;
5303;SDS011;2674;49.722;10.892;2024-02-14T06:51:50;9.00;;;5.30;;
5303;SDS011;2674;49.722;10.892;2024-02-14T06:54:16;16.40;;;6.13;;
5303;SDS011;2674;49.722;10.892;2024-02-14T06:56:44;10.03;;;4.73;;
5303;SDS011;2674;49.722;10.892;2024-02-14T06:59:10;7.13;;;5.13;;
5303;SDS011;2674;49.722;10.892;2024-02-14T07:01:36;13.63;;;5.40;;
5303;SDS011;2674;49.722;10.892;2024-02-14T07:04:03;12.07;;;6.43;;
5303;SDS011;2674;49.722;10.892;2024-02-14T07:06:29;13.60;;;5.03;;
5303;SDS011;2674;49.722;10.892;2024-02-14T07:08:55;8.00;;;5.00;;
5303;SDS011;2674;49.722;10.892;2024-02-14T07:11:21;7.93;;;5.10;;
5303;SDS011;2674;49.722;10.892;2024-02-14T07:13:47;11.50;;;6.20;;
5303;SDS011;2674;49.722;10.892;2024-02-14T07:16:13;10.90;;;5.17;;
5303;SDS011;2674;49.722;10.892;2024-02-14T07:18:38;4.97;;;4.57;;
5303;SDS011;2674;49.722;10.892;2024-02-14T07:21:08;9.30;;;5.43;;
5303;SDS011;2674;49.722;10.892;2024-02-14T07:23:34;4.57;;;4.17;;
5303;SDS011;2674;49.722;10.892;2024-02-14T07:26:00;6.93;;;5.93;;
5303;SDS011;2674;49.722;10.892;2024-02-14T07:28:28;10.43;;;5.23;;
5303;SDS011;2674;49.722;10.892;2024-02-14T07:30:54;11.23;;;5.80;;
5303;SDS011;2674;49.722;10.892;2024-02-14T07:33:20;9.17;;;5.00;;
5303;SDS011;2674;49.722;10.892;2024-02-14T07:35:46;8.77;;;6.23;;
5303;SDS011;2674;49.722;10.892;2024-02-14T07:38:15;12.47;;;5.97;;
5303;SDS011;2674;49.722;10.892;2024-02-14T07:40:41;12.37;;;6.20;;
5303;SDS011;2674;49.722;10.892;2024-02-14T07:43:07;15.20;;;6.20;;
5303;SDS011;2674;49.722;10.892;2024-02-14T07:45:33;7.60;;;5.50;;
5303;SDS011;2674;49.722;10.892;2024-02-14T07:47:59;9.10;;;6.10;;
5303;SDS011;2674;49.722;10.892;2024-02-14T07:50:25;10.30;;;5.27;;
5303;SDS011;2674;49.722;10.892;2024-02-14T07:52:53;8.70;;;5.27;;
5303;SDS011;2674;49.722;10.892;2024-02-14T07:55:18;6.00;;;4.80;;
5303;SDS011;2674;49.722;10.892;2024-02-14T07:57:44;8.40;;;5.40;;
5303;SDS011;2674;49.722;10.892;2024-02-14T08:00:10;22.10;;;6.47;;
5303;SDS011;2674;49.722;10.892;2024-02-14T08:02:39;5.10;;;4.70;;
5303;SDS011;2674;49.722;10.892;2024-02-14T08:05:05;5.90;;;4.93;;
5303;SDS011;2674;49.722;10.892;2024-02-14T08:07:31;8.97;;;5.30;;
5303;SDS011;2674;49.722;10.892;2024-02-14T08:09:56;11.70;;;5.40;;
5303;SDS011;2674;49.722;10.892;2024-02-14T08:12:22;11.17;;;4.80;;
5303;SDS011;2674;49.722;10.892;2024-02-14T08:14:50;9.50;;;5.33;;
5303;SDS011;2674;49.722;10.892;2024-02-14T08:17:16;14.67;;;5.83;;
5303;SDS011;2674;49.722;10.892;2024-02-14T08:19:42;6.67;;;5.00;;
5303;SDS011;2674;49.722;10.892;2024-02-14T08:22:08;7.60;;;4.70;;
5303;SDS011;2674;49.722;10.892;2024-02-14T08:24:34;8.03;;;4.93;;
5303;SDS011;2674;49.722;10.892;2024-02-14T08:27:00;5.37;;;4.30;;
5303;SDS011;2674;49.722;10.892;2024-02-14T08:29:25;11.87;;;4.37;;
5303;SDS011;2674;49.722;10.892;2024-02-14T08:31:51;8.87;;;5.20;;
5303;SDS011;2674;49.722;10.892;2024-02-14T08:34:18;5.80;;;4.50;;
5303;SDS011;2674;49.722;10.892;2024-02-14T08:36:43;4.70;;;4.30;;
5303;SDS011;2674;49.722;10.892;2024-02-14T08:39:10;12.27;;;5.20;;
5303;SDS011;2674;49.722;10.892;2024-02-14T08:41:39;5.57;;;4.40;;
5303;SDS011;2674;49.722;10.892;2024-02-14T08:44:06;7.97;;;4.73;;
5303;SDS011;2674;49.722;10.892;2024-02-14T08:46:32;5.90;;;4.87;;
5303;SDS011;2674;49.722;10.892;2024-02-14T08:48:59;8.43;;;4.63;;
5303;SDS011;2674;49.722;10.892;2024-02-14T08:51:27;4.40;;;3.80;;
5303;SDS011;2674;49.722;10.892;2024-02-14T08:53:55;10.50;;;4.90;;
5303;SDS011;2674;49.722;10.892;2024-02-14T08:56:24;8.50;;;4.77;;
5303;SDS011;2674;49.722;10.892;2024-02-14T08:58:50;6.83;;;4.53;;
5303;SDS011;2674;49.722;10.892;2024-02-14T09:01:16;5.97;;;4.40;;
5303;SDS011;2674;49.722;10.892;2024-02-14T09:03:42;5.13;;;4.37;;
5303;SDS011;2674;49.722;10.892;2024-02-14T09:06:12;7.90;;;4.60;;
5303;SDS011;2674;49.722;10.892;2024-02-14T09:08:40;7.80;;;4.73;;
5303;SDS011;2674;49.722;10.892;2024-02-14T09:11:06;8.00;;;4.47;;
5303;SDS011;2674;49.722;10.892;2024-02-14T09:13:33;4.83;;;4.23;;
5303;SDS011;2674;49.722;10.892;2024-02-14T09:15:58;8.20;;;4.87;;
5303;SDS011;2674;49.722;10.892;2024-02-14T09:18:25;10.97;;;4.77;;
5303;SDS011;2674;49.722;10.892;2024-02-14T09:20:50;7.20;;;4.23;;
5303;SDS011;2674;49.722;10.892;2024-02-14T09:23:16;8.03;;;4.87;;
5303;SDS011;2674;49.722;10.892;2024-02-14T09:25:47;7.97;;;4.20;;
5303;SDS011;2674;49.722;10.892;2024-02-14T09:28:15;6.63;;;4.60;;
5303;SDS011;2674;49.722;10.892;2024-02-14T09:30:41;8.27;;;4.70;;
5303;SDS011;2674;49.722;10.892;2024-02-14T09:33:07;5.77;;;4.60;;
5303;SDS011;2674;49.722;10.892;2024-02-14T09:35:32;9.87;;;5.50;;
5303;SDS011;2674;49.722;10.892;2024-02-14T09:38:00;5.57;;;5.07;;
5303;SDS011;2674;49.722;10.892;2024-02-14T09:40:25;8.27;;;5.43;;
5303;SDS011;2674;49.722;10.892;2024-02-14T09:42:53;6.70;;;4.50;;
5303;SDS011;2674;49.722;10.892;2024-02-14T09:45:22;7.80;;;4.43;;
5303;SDS011;2674;49.722;10.892;2024-02-14T09:47:49;8.23;;;4.27;;
5303;SDS011;2674;49.722;10.892;2024-02-14T09:50:16;7.60;;;4.57;;
5303;SDS011;2674;49.722;10.892;2024-02-14T09:52:45;7.22;;;4.57;;
5303;SDS011;2674;49.722;10.892;2024-02-14T09:55:13;7.80;;;4.43;;
5303;SDS011;2674;49.722;10.892;2024-02-14T09:57:40;8.30;;;4.30;;
5303;SDS011;2674;49.722;10.892;2024-02-14T10:00:10;8.50;;;4.53;;
5303;SDS011;2674;49.722;10.892;2024-02-14T10:02:39;8.33;;;4.47;;
5303;SDS011;2674;49.722;10.892;2024-02-14T10:05:06;8.43;;;4.00;;
5303;SDS011;2674;49.722;10.892;2024-02-14T10:07:42;9.17;;;3.83;;
5303;SDS011;2674;49.722;10.892;2024-02-14T10:10:08;11.40;;;4.90;;
5303;SDS011;2674;49.722;10.892;2024-02-14T10:12:36;5.30;;;3.87;;
5303;SDS011;2674;49.722;10.892;2024-02-14T10:15:02;6.87;;;3.90;;
5303;SDS011;2674;49.722;10.892;2024-02-14T10:17:29;7.13;;;4.47;;
5303;SDS011;2674;49.722;10.892;2024-02-14T10:19:58;7.23;;;4.23;;
5303;SDS011;2674;49.722;10.892;2024-02-14T10:22:25;10.20;;;4.03;;
5303;SDS011;2674;49.722;10.892;2024-02-14T10:25:01;5.17;;;4.03;;
5303;SDS011;2674;49.722;10.892;2024-02-14T10:27:34;4.97;;;3.70;;
5303;SDS011;2674;49.722;10.892;2024-02-14T10:30:03;5.73;;;3.37;;
5303;SDS011;2674;49.722;10.892;2024-02-14T10:32:33;5.43;;;3.30;;
5303;SDS011;2674;49.722;10.892;2024-02-14T10:34:59;6.73;;;3.13;;
5303;SDS011;2674;49.722;10.892;2024-02-14T10:37:26;4.00;;;3.13;;
5303;SDS011;2674;49.722;10.892;2024-02-14T10:39:55;4.73;;;3.70;;
5303;SDS011;2674;49.722;10.892;2024-02-14T10:42:23;3.13;;;2.83;;
5303;SDS011;2674;49.722;10.892;2024-02-14T10:44:49;4.87;;;3.00;;
5303;SDS011;2674;49.722;10.892;2024-02-14T10:47:19;5.13;;;3.50;;
5303;SDS011;2674;49.722;10.892;2024-02-14T10:49:48;5.40;;;3.17;;
5303;SDS011;2674;49.722;10.892;2024-02-14T10:52:17;3.13;;;2.93;;
5303;SDS011;2674;49.722;10.892;2024-02-14T10:54:43;3.10;;;2.80;;
5303;SDS011;2674;49.722;10.892;2024-02-14T10:57:21;8.27;;;3.00;;
5303;SDS011;2674;49.722;10.892;2024-02-14T10:59:49;6.57;;;2.57;;
5303;SDS011;2674;49.722;10.892;2024-02-14T11:02:18;3.10;;;2.40;;
5303;SDS011;2674;49.722;10.892;2024-02-14T11:04:45;7.83;;;3.20;;
5303;SDS011;2674;49.722;10.892;2024-02-14T11:07:11;7.73;;;3.90;;
5303;SDS011;2674;49.722;10.892;2024-02-14T11:09:38;16.30;;;5.73;;
5303;SDS011;2674;49.722;10.892;2024-02-14T11:12:09;8.40;;;4.40;;
5303;SDS011;2674;49.722;10.892;2024-02-14T11:14:36;3.73;;;3.10;;
5303;SDS011;2674;49.722;10.892;2024-02-14T11:17:04;4.60;;;2.00;;
5303;SDS011;2674;49.722;10.892;2024-02-14T11:19:34;3.93;;;2.67;;
5303;SDS011;2674;49.722;10.892;2024-02-14T11:22:13;4.73;;;2.13;;
5303;SDS011;2674;49.722;10.892;2024-02-14T11:24:46;7.37;;;3.07;;
5303;SDS011;2674;49.722;10.892;2024-02-14T11:27:13;10.00;;;2.40;;
5303;SDS011;2674;49.722;10.892;2024-02-14T11:29:39;2.37;;;2.17;;
5303;SDS011;2674;49.722;10.892;2024-02-14T11:32:08;4.70;;;2.07;;
5303;SDS011;2674;49.722;10.892;2024-02-14T11:34:36;1.90;;;1.80;;
5303;SDS011;2674;49.722;10.892;2024-02-14T11:37:02;2.07;;;1.87;;
5303;SDS011;2674;49.722;10.892;2024-02-14T11:39:30;5.73;;;2.10;;
5303;SDS011;2674;49.722;10.892;2024-02-14T11:41:58;3.90;;;2.50;;
5303;SDS011;2674;49.722;10.892;2024-02-14T11:44:25;2.00;;;1.90;;
5303;SDS011;2674;49.722;10.892;2024-02-14T11:46:51;1.60;;;1.50;;
5303;SDS011;2674;49.722;10.892;2024-02-14T11:49:17;2.20;;;1.90;;
5303;SDS011;2674;49.722;10.892;2024-02-14T11:51:43;2.00;;;1.90;;
5303;SDS011;2674;49.722;10.892;2024-02-14T11:54:09;2.27;;;2.00;;
5303;SDS011;2674;49.722;10.892;2024-02-14T11:56:36;4.30;;;2.27;;
5303;SDS011;2674;49.722;10.892;2024-02-14T11:59:03;5.80;;;2.80;;
5303;SDS011;2674;49.722;10.892;2024-02-14T12:01:33;3.77;;;2.33;;
5303;SDS011;2674;49.722;10.892;2024-02-14T12:04:00;5.63;;;2.60;;
5303;SDS011;2674;49.722;10.892;2024-02-14T12:06:30;13.33;;;5.40;;
5303;SDS011;2674;49.722;10.892;2024-02-14T12:08:59;10.80;;;5.77;;
5303;SDS011;2674;49.722;10.892;2024-02-14T12:11:37;5.20;;;2.77;;
5303;SDS011;2674;49.722;10.892;2024-02-14T12:14:07;2.57;;;2.37;;
5303;SDS011;2674;49.722;10.892;2024-02-14T12:16:34;3.10;;;2.13;;
5303;SDS011;2674;49.722;10.892;2024-02-14T12:19:05;9.40;;;2.10;;
5303;SDS011;2674;49.722;10.892;2024-02-14T12:21:38;2.93;;;2.53;;
5303;SDS011;2674;49.722;10.892;2024-02-14T12:24:08;2.80;;;2.60;;
5303;SDS011;2674;49.722;10.892;2024-02-14T12:26:35;2.60;;;1.70;;
5303;SDS011;2674;49.722;10.892;2024-02-14T12:29:02;2.20;;;2.00;;
5303;SDS011;2674;49.722;10.892;2024-02-14T12:31:32;8.23;;;3.20;;
5303;SDS011;2674;49.722;10.892;2024-02-14T12:33:58;2.43;;;1.90;;
5303;SDS011;2674;49.722;10.892;2024-02-14T12:36:27;2.50;;;2.23;;
5303;SDS011;2674;49.722;10.892;2024-02-14T12:38:59;2.83;;;2.57;;
5303;SDS011;2674;49.722;10.892;2024-02-14T12:41:32;7.00;;;3.60;;
5303;SDS011;2674;49.722;10.892;2024-02-14T12:44:00;3.23;;;2.40;;
5303;SDS011;2674;49.722;10.892;2024-02-14T12:46:26;7.27;;;1.90;;
5303;SDS011;2674;49.722;10.892;2024-02-14T12:48:52;5.00;;;2.40;;
5303;SDS011;2674;49.722;10.892;2024-02-14T12:51:19;2.20;;;1.80;;
5303;SDS011;2674;49.722;10.892;2024-02-14T12:53:45;4.67;;;2.40;;
5303;SDS011;2674;49.722;10.892;2024-02-14T12:56:10;2.37;;;2.07;;
5303;SDS011;2674;49.722;10.892;2024-02-14T12:58:36;2.97;;;2.10;;
5303;SDS011;2674;49.722;10.892;2024-02-14T13:01:02;3.17;;;2.40;;
5303;SDS011;2674;49.722;10.892;2024-02-14T13:03:34;3.53;;;2.23;;
5303;SDS011;2674;49.722;10.892;2024-02-14T13:06:00;12.70;;;2.83;;
5303;SDS011;2674;49.722;10.892;2024-02-14T13:08:26;2.87;;;2.67;;
5303;SDS011;2674;49.722;10.892;2024-02-14T13:10:52;3.90;;;2.23;;
5303;SDS011;2674;49.722;10.892;2024-02-14T13:13:18;11.57;;;3.30;;
5303;SDS011;2674;49.722;10.892;2024-02-14T13:15:44;3.53;;;1.90;;
5303;SDS011;2674;49.722;10.892;2024-02-14T13:18:10;2.70;;;2.27;;
5303;SDS011;2674;49.722;10.892;2024-02-14T13:20:36;5.47;;;2.43;;
5303;SDS011;2674;49.722;10.892;2024-02-14T13:23:04;2.27;;;2.17;;
5303;SDS011;2674;49.722;10.892;2024-02-14T13:25:33;2.30;;;2.10;;
5303;SDS011;2674;49.722;10.892;2024-02-14T13:27:59;7.40;;;3.03;;
5303;SDS011;2674;49.722;10.892;2024-02-14T13:30:24;3.83;;;3.40;;
5303;SDS011;2674;49.722;10.892;2024-02-14T13:32:50;3.37;;;2.60;;
5303;SDS011;2674;49.722;10.892;2024-02-14T13:35:16;2.90;;;2.27;;
5303;SDS011;2674;49.722;10.892;2024-02-14T13:37:42;7.43;;;2.03;;
5303;SDS011;2674;49.722;10.892;2024-02-14T13:40:10;2.83;;;2.10;;
5303;SDS011;2674;49.722;10.892;2024-02-14T13:42:36;3.27;;;2.60;;
5303;SDS011;2674;49.722;10.892;2024-02-14T13:45:03;3.20;;;1.90;;
5303;SDS011;2674;49.722;10.892;2024-02-14T13:47:35;6.20;;;2.60;;
5303;SDS011;2674;49.722;10.892;2024-02-14T13:50:04;2.97;;;2.37;;
5303;SDS011;2674;49.722;10.892;2024-02-14T13:52:30;3.43;;;2.13;;
5303;SDS011;2674;49.722;10.892;2024-02-14T13:54:58;3.20;;;2.90;;
5303;SDS011;2674;49.722;10.892;2024-02-14T13:57:23;2.80;;;2.27;;
5303;SDS011;2674;49.722;10.892;2024-02-14T13:59:49;4.30;;;2.50;;
5303;SDS011;2674;49.722;10.892;2024-02-14T14:02:15;6.23;;;2.93;;
5303;SDS011;2674;49.722;10.892;2024-02-14T14:04:41;4.77;;;3.73;;
5303;SDS011;2674;49.722;10.892;2024-02-14T14:07:07;3.63;;;3.33;;
5303;SDS011;2674;49.722;10.892;2024-02-14T14:09:33;3.23;;;2.57;;
5303;SDS011;2674;49.722;10.892;2024-02-14T14:12:00;6.23;;;2.57;;
5303;SDS011;2674;49.722;10.892;2024-02-14T14:14:26;5.50;;;2.50;;
5303;SDS011;2674;49.722;10.892;2024-02-14T14:16:52;3.03;;;2.80;;
5303;SDS011;2674;49.722;10.892;2024-02-14T14:19:18;3.20;;;2.07;;
5303;SDS011;2674;49.722;10.892;2024-02-14T14:21:44;4.73;;;2.80;;
5303;SDS011;2674;49.722;10.892;2024-02-14T14:24:10;5.87;;;2.97;;
5303;SDS011;2674;49.722;10.892;2024-02-14T14:26:35;12.33;;;3.50;;
5303;SDS011;2674;49.722;10.892;2024-02-14T14:29:02;4.47;;;3.10;;
5303;SDS011;2674;49.722;10.892;2024-02-14T14:31:29;5.03;;;2.67;;
5303;SDS011;2674;49.722;10.892;2024-02-14T14:33:56;3.13;;;2.50;;
5303;SDS011;2674;49.722;10.892;2024-02-14T14:36:22;4.73;;;2.60;;
5303;SDS011;2674;49.722;10.892;2024-02-14T14:38:47;3.03;;;2.03;;
5303;SDS011;2674;49.722;10.892;2024-02-14T14:41:13;3.50;;;2.87;;
5303;SDS011;2674;49.722;10.892;2024-02-14T14:43:39;4.87;;;2.60;;
5303;SDS011;2674;49.722;10.892;2024-02-14T14:46:05;3.37;;;3.07;;
5303;SDS011;2674;49.722;10.892;2024-02-14T14:48:31;4.50;;;2.50;;
5303;SDS011;2674;49.722;10.892;2024-02-14T14:50:57;3.60;;;2.60;;
5303;SDS011;2674;49.722;10.892;2024-02-14T14:53:22;6.20;;;3.20;;